createdAt,value
2017-10-27T00:00:35.408Z,31.47
2017-10-27T00:03:03.045Z,35.63
2017-10-27T00:05:30.678Z,34.20
2017-10-27T00:07:58.341Z,29.73
2017-10-27T00:10:25.942Z,34.83
2017-10-27T00:12:53.588Z,36.47
2017-10-27T00:15:21.194Z,32.60
2017-10-27T00:17:48.829Z,29.40
2017-10-27T00:20:16.451Z,28.27
2017-10-27T00:22:44.061Z,28.63
2017-10-27T00:25:11.691Z,27.30
2017-10-27T00:27:39.281Z,36.67
2017-10-27T00:30:06.920Z,27.47
2017-10-27T00:32:34.514Z,28.87
2017-10-27T00:35:02.130Z,33.93
2017-10-27T00:37:29.771Z,34.33
2017-10-27T00:39:57.385Z,23.53
2017-10-27T00:42:25.038Z,30.40
2017-10-27T00:44:52.674Z,25.00
2017-10-27T00:47:20.256Z,24.43
2017-10-27T00:49:47.872Z,28.60
2017-10-27T00:52:15.470Z,25.70
2017-10-27T00:54:43.113Z,33.83
2017-10-27T00:57:10.720Z,36.23
2017-10-27T00:59:38.317Z,22.83
2017-10-27T01:02:05.950Z,25.33
2017-10-27T01:04:33.554Z,22.10
2017-10-27T01:07:01.274Z,27.47
2017-10-27T01:09:28.889Z,33.37
2017-10-27T01:11:56.473Z,24.70
2017-10-27T01:14:24.437Z,26.50
2017-10-27T01:16:52.049Z,29.30
2017-10-27T01:19:19.702Z,24.87
2017-10-27T01:21:47.289Z,25.10
2017-10-27T01:24:14.892Z,24.53
2017-10-27T01:26:42.509Z,24.07
2017-10-27T01:29:10.101Z,24.43
2017-10-27T01:31:37.737Z,22.10
2017-10-27T01:34:05.344Z,23.33
2017-10-27T01:36:32.950Z,26.03
2017-10-27T01:39:00.625Z,24.97
2017-10-27T01:41:28.209Z,18.30
2017-10-27T01:43:56.094Z,21.87
2017-10-27T01:46:23.682Z,29.00
2017-10-27T01:48:51.277Z,21.47
2017-10-27T01:51:18.901Z,19.33
2017-10-27T01:53:46.489Z,21.83
2017-10-27T01:56:14.089Z,25.93
2017-10-27T01:58:41.721Z,26.33
2017-10-27T02:01:09.331Z,18.30
2017-10-27T02:03:36.927Z,21.33
2017-10-27T02:06:04.562Z,30.53
2017-10-27T02:08:32.154Z,22.13
2017-10-27T02:10:59.746Z,17.77
2017-10-27T02:13:27.390Z,19.57
2017-10-27T02:15:55.026Z,21.63
2017-10-27T02:18:22.677Z,17.07
2017-10-27T02:20:50.284Z,23.23
2017-10-27T02:23:17.897Z,17.13
2017-10-27T02:25:45.949Z,17.87
2017-10-27T02:28:13.549Z,23.13
2017-10-27T02:30:41.198Z,19.03
2017-10-27T02:33:08.782Z,26.93
2017-10-27T02:35:36.410Z,24.80
2017-10-27T02:38:04.029Z,24.07
2017-10-27T02:40:31.638Z,18.20
2017-10-27T02:42:59.277Z,17.87
2017-10-27T02:45:27.167Z,17.57
2017-10-27T02:47:54.750Z,32.77
2017-10-27T02:50:22.395Z,19.13
2017-10-27T02:52:49.977Z,17.23
2017-10-27T02:55:17.622Z,19.73
2017-10-27T02:57:45.208Z,21.03
2017-10-27T03:00:12.835Z,29.27
2017-10-27T03:02:40.499Z,23.23
2017-10-27T03:05:08.096Z,21.90
2017-10-27T03:07:35.781Z,19.27
2017-10-27T03:10:03.383Z,17.17
2017-10-27T03:12:30.972Z,25.20
2017-10-27T03:14:58.598Z,19.43
2017-10-27T03:17:26.191Z,19.50
2017-10-27T03:19:53.877Z,20.90
2017-10-27T03:22:21.476Z,20.87
2017-10-27T03:24:49.073Z,26.20
2017-10-27T03:27:16.932Z,22.57
2017-10-27T03:29:44.555Z,30.63
2017-10-27T03:32:12.556Z,20.60
2017-10-27T03:34:40.158Z,20.80
2017-10-27T03:37:07.784Z,18.07
2017-10-27T03:39:35.738Z,28.70
2017-10-27T03:42:03.352Z,18.60
2017-10-27T03:44:30.971Z,17.13
2017-10-27T03:46:58.613Z,24.33
2017-10-27T03:49:26.201Z,15.40
2017-10-27T03:51:53.825Z,17.87
2017-10-27T03:54:21.430Z,18.50
2017-10-27T03:56:49.385Z,21.30
2017-10-27T03:59:16.993Z,21.87
2017-10-27T04:01:44.618Z,26.50
2017-10-27T04:04:12.577Z,22.93
2017-10-27T04:06:40.165Z,22.33
2017-10-27T04:09:07.777Z,14.80
2017-10-27T04:11:35.365Z,12.57
2017-10-27T04:14:02.956Z,25.27
2017-10-27T04:16:30.568Z,15.50
2017-10-27T04:18:58.180Z,16.70
2017-10-27T04:21:25.808Z,16.10
2017-10-27T04:23:53.673Z,24.03
2017-10-27T04:26:21.286Z,21.43
2017-10-27T04:28:49.212Z,16.07
2017-10-27T04:31:16.789Z,18.00
2017-10-27T04:33:44.737Z,15.13
2017-10-27T04:36:12.605Z,19.43
2017-10-27T04:38:40.473Z,22.03
2017-10-27T04:41:08.085Z,17.87
2017-10-27T04:43:36.009Z,16.60
2017-10-27T04:46:03.685Z,18.13
2017-10-27T04:48:31.273Z,16.50
2017-10-27T04:50:58.870Z,22.93
2017-10-27T04:53:26.485Z,16.13
2017-10-27T04:55:54.075Z,22.10
2017-10-27T04:58:21.702Z,17.57
2017-10-27T05:00:49.551Z,16.80
2017-10-27T05:03:17.138Z,23.27
2017-10-27T05:05:44.752Z,20.33
2017-10-27T05:08:12.640Z,17.00
2017-10-27T05:10:40.320Z,22.77
2017-10-27T05:13:07.900Z,15.70
2017-10-27T05:15:35.497Z,11.80
2017-10-27T05:18:08.642Z,21.33
2017-10-27T05:20:41.736Z,27.47
2017-10-27T05:23:15.226Z,30.90
2017-10-27T05:25:43.566Z,18.13
2017-10-27T05:28:11.202Z,18.70
2017-10-27T05:30:39.219Z,20.17
2017-10-27T05:33:06.865Z,17.90
2017-10-27T05:35:34.484Z,19.63
2017-10-27T05:38:02.090Z,20.90
2017-10-27T05:40:29.732Z,24.20
2017-10-27T05:42:57.319Z,19.83
2017-10-27T05:45:24.925Z,20.30
2017-10-27T05:47:52.615Z,15.17
2017-10-27T05:50:20.206Z,17.20
2017-10-27T05:52:48.692Z,17.07
2017-10-27T05:55:16.308Z,20.40
2017-10-27T05:57:43.910Z,29.63
2017-10-27T06:00:11.535Z,24.07
2017-10-27T06:02:39.128Z,27.17
2017-10-27T06:05:06.799Z,21.43
2017-10-27T06:07:34.392Z,25.47
2017-10-27T06:10:02.250Z,22.33
2017-10-27T06:12:29.876Z,21.50
2017-10-27T06:14:57.709Z,32.90
2017-10-27T06:17:25.335Z,29.23
2017-10-27T06:19:52.937Z,22.43
2017-10-27T06:22:20.523Z,19.10
2017-10-27T06:24:48.140Z,21.53
2017-10-27T06:27:16.055Z,21.10
2017-10-27T06:29:43.678Z,15.80
2017-10-27T06:32:11.427Z,21.53
2017-10-27T06:34:39.025Z,25.03
2017-10-27T06:37:07.221Z,27.80
2017-10-27T06:39:34.822Z,22.50
2017-10-27T06:42:02.473Z,18.20
2017-10-27T06:44:30.064Z,35.03
2017-10-27T06:46:57.661Z,26.37
2017-10-27T06:49:25.272Z,21.07
2017-10-27T06:51:52.860Z,27.50
2017-10-27T06:54:20.517Z,20.03
2017-10-27T06:56:48.117Z,25.73
2017-10-27T06:59:15.737Z,20.10
2017-10-27T07:01:43.423Z,17.30
2017-10-27T07:04:11.008Z,19.10
2017-10-27T07:06:38.821Z,18.73
2017-10-27T07:09:06.467Z,21.60
2017-10-27T07:11:34.053Z,15.60
2017-10-27T07:14:01.702Z,13.23
2017-10-27T07:16:29.657Z,20.60
2017-10-27T07:18:57.325Z,15.40
2017-10-27T07:21:24.938Z,19.50
2017-10-27T07:23:52.562Z,25.33
2017-10-27T07:26:20.168Z,19.10
2017-10-27T07:28:47.762Z,22.17
2017-10-27T07:31:15.377Z,21.93
2017-10-27T07:33:42.991Z,17.30
2017-10-27T07:36:10.613Z,18.60
2017-10-27T07:38:38.250Z,22.23
2017-10-27T07:41:05.850Z,16.50
2017-10-27T07:43:33.500Z,21.20
2017-10-27T07:46:01.092Z,23.30
2017-10-27T07:48:28.968Z,20.43
2017-10-27T07:50:56.576Z,22.37
2017-10-27T07:53:24.174Z,23.97
2017-10-27T07:55:51.828Z,17.20
2017-10-27T07:58:19.447Z,19.40
2017-10-27T08:00:47.039Z,18.17
2017-10-27T08:03:14.950Z,21.60
2017-10-27T08:05:42.546Z,18.13
2017-10-27T08:08:10.199Z,17.80
2017-10-27T08:10:37.788Z,17.83
2017-10-27T08:13:05.381Z,13.90
2017-10-27T08:15:33.010Z,17.00
2017-10-27T08:18:00.621Z,20.50
2017-10-27T08:20:28.264Z,16.23
2017-10-27T08:22:55.857Z,15.10
2017-10-27T08:25:23.471Z,19.20
2017-10-27T08:27:51.084Z,18.87
2017-10-27T08:30:18.685Z,23.93
2017-10-27T08:32:46.279Z,13.77
2017-10-27T08:35:13.941Z,17.57
2017-10-27T08:37:41.528Z,18.03
2017-10-27T08:40:09.115Z,16.27
2017-10-27T08:42:36.745Z,21.40
2017-10-27T08:45:04.349Z,21.93
2017-10-27T08:47:31.942Z,22.03
2017-10-27T08:49:59.858Z,12.70
2017-10-27T08:52:27.456Z,16.10
2017-10-27T08:54:55.112Z,20.33
2017-10-27T08:57:22.691Z,21.23
2017-10-27T08:59:50.297Z,31.53
2017-10-27T09:02:17.930Z,16.30
2017-10-27T09:04:45.561Z,18.50
2017-10-27T09:07:13.249Z,18.23
2017-10-27T09:09:40.882Z,23.03
2017-10-27T09:12:08.473Z,21.33
2017-10-27T09:14:36.129Z,25.27
2017-10-27T09:17:03.788Z,18.50
2017-10-27T09:19:31.425Z,17.13
2017-10-27T09:21:59.010Z,23.60
2017-10-27T09:24:26.610Z,16.03
2017-10-27T09:26:54.237Z,16.07
2017-10-27T09:29:21.856Z,18.43
2017-10-27T09:31:49.524Z,14.77
2017-10-27T09:34:17.122Z,17.73
2017-10-27T09:36:44.713Z,16.90
2017-10-27T09:39:12.410Z,19.53
2017-10-27T09:41:40.001Z,16.97
2017-10-27T09:44:07.629Z,17.70
2017-10-27T09:46:35.267Z,15.67
2017-10-27T09:49:02.850Z,22.83
2017-10-27T09:51:30.495Z,15.30
2017-10-27T09:53:58.093Z,28.97
2017-10-27T09:56:25.729Z,14.40
2017-10-27T09:58:53.335Z,15.63
2017-10-27T10:01:20.924Z,16.70
2017-10-27T10:03:48.554Z,13.40
2017-10-27T10:06:16.157Z,21.83
2017-10-27T10:08:43.803Z,19.07
2017-10-27T10:11:11.416Z,27.00
2017-10-27T10:13:39.365Z,14.63
2017-10-27T10:16:07.018Z,19.77
2017-10-27T10:18:34.679Z,27.03
2017-10-27T10:21:02.329Z,20.37
2017-10-27T10:23:29.927Z,12.53
2017-10-27T10:25:57.514Z,15.00
2017-10-27T10:28:25.186Z,14.47
2017-10-27T10:30:52.783Z,21.00
2017-10-27T10:33:20.468Z,15.60
2017-10-27T10:35:48.070Z,13.50
2017-10-27T10:38:15.669Z,21.27
2017-10-27T10:40:43.296Z,17.77
2017-10-27T10:43:10.890Z,19.73
2017-10-27T10:45:38.513Z,23.47
2017-10-27T10:48:06.124Z,13.90
2017-10-27T10:50:33.716Z,17.63
2017-10-27T10:53:01.658Z,19.23
2017-10-27T10:55:29.257Z,20.53
2017-10-27T10:57:56.887Z,12.63
2017-10-27T11:00:24.472Z,13.97
2017-10-27T11:02:52.120Z,14.63
2017-10-27T11:05:19.739Z,12.83
2017-10-27T11:07:47.329Z,10.17
2017-10-27T11:10:14.958Z,19.50
2017-10-27T11:12:42.552Z,15.97
2017-10-27T11:15:10.429Z,20.63
2017-10-27T11:17:38.091Z,17.40
2017-10-27T11:20:05.682Z,17.03
2017-10-27T11:22:33.313Z,12.70
2017-10-27T11:25:00.896Z,19.10
2017-10-27T11:27:28.535Z,21.73
2017-10-27T11:29:56.164Z,23.53
2017-10-27T11:32:23.774Z,15.00
2017-10-27T11:34:51.444Z,12.47
2017-10-27T11:37:19.056Z,23.13
2017-10-27T11:39:46.653Z,14.70
2017-10-27T11:42:14.260Z,18.63
2017-10-27T11:44:41.867Z,21.47
2017-10-27T11:47:09.839Z,15.53
2017-10-27T11:49:37.449Z,14.30
2017-10-27T11:52:05.058Z,13.87
2017-10-27T11:54:32.691Z,16.83
2017-10-27T11:57:00.279Z,17.93
2017-10-27T11:59:27.914Z,11.30
2017-10-27T12:01:55.922Z,12.57
2017-10-27T12:04:23.545Z,13.67
2017-10-27T12:06:51.214Z,18.30
2017-10-27T12:09:18.861Z,12.87
2017-10-27T12:11:46.509Z,18.90
2017-10-27T12:14:14.146Z,19.10
2017-10-27T12:16:41.886Z,14.97
2017-10-27T12:19:09.560Z,9.80
2017-10-27T12:21:37.171Z,17.43
2017-10-27T12:24:04.797Z,13.10
2017-10-27T12:26:32.388Z,12.50
2017-10-27T12:29:00.053Z,10.60
2017-10-27T12:31:27.729Z,10.90
2017-10-27T12:33:56.030Z,9.93
2017-10-27T12:36:23.769Z,13.80
2017-10-27T12:38:51.386Z,12.53
2017-10-27T12:41:19.011Z,10.37
2017-10-27T12:43:46.619Z,13.47
2017-10-27T12:46:14.209Z,10.07
2017-10-27T12:48:42.078Z,19.50
2017-10-27T12:51:09.708Z,12.93
2017-10-27T12:53:37.401Z,20.80
2017-10-27T12:56:05.039Z,17.40
2017-10-27T12:58:32.643Z,15.83
2017-10-27T13:01:00.304Z,20.73
2017-10-27T13:03:27.907Z,18.30
2017-10-27T13:05:55.570Z,13.30
2017-10-27T13:08:23.209Z,18.57
2017-10-27T13:10:50.790Z,13.43
2017-10-27T13:13:18.419Z,16.37
2017-10-27T13:15:46.137Z,15.47
2017-10-27T13:18:13.801Z,17.00
2017-10-27T13:20:41.581Z,14.07
2017-10-27T13:23:09.193Z,19.27
2017-10-27T13:25:36.842Z,19.50
2017-10-27T13:28:04.424Z,12.33
2017-10-27T13:30:32.071Z,20.90
2017-10-27T13:32:59.690Z,19.13
2017-10-27T13:35:27.297Z,14.20
2017-10-27T13:37:54.936Z,18.50
2017-10-27T13:40:22.611Z,15.00
2017-10-27T13:42:50.237Z,21.60
2017-10-27T13:45:17.935Z,19.10
2017-10-27T13:47:45.567Z,9.60
2017-10-27T13:50:13.186Z,16.07
2017-10-27T13:52:40.836Z,12.77
2017-10-27T13:55:09.416Z,16.77
2017-10-27T13:57:37.046Z,13.50
2017-10-27T14:00:04.655Z,9.50
2017-10-27T14:02:32.274Z,14.07
2017-10-27T14:04:59.856Z,11.97
2017-10-27T14:07:27.494Z,19.90
2017-10-27T14:09:55.113Z,15.20
2017-10-27T14:12:22.984Z,15.83
2017-10-27T14:14:50.616Z,10.90
2017-10-27T14:17:18.229Z,11.70
2017-10-27T14:19:46.177Z,19.57
2017-10-27T14:22:13.803Z,10.03
2017-10-27T14:24:41.422Z,10.13
2017-10-27T14:27:09.288Z,14.00
2017-10-27T14:29:36.907Z,20.90
2017-10-27T14:32:04.561Z,15.40
2017-10-27T14:34:32.168Z,13.63
2017-10-27T14:36:59.766Z,11.73
2017-10-27T14:39:27.399Z,14.40
2017-10-27T14:41:55.361Z,15.33
2017-10-27T14:44:23.115Z,9.47
2017-10-27T14:46:50.775Z,10.80
2017-10-27T14:49:20.969Z,21.27
2017-10-27T14:51:48.654Z,12.07
2017-10-27T14:54:16.254Z,13.33
2017-10-27T14:56:43.903Z,18.93
2017-10-27T14:59:11.526Z,9.80
2017-10-27T15:01:39.524Z,13.73
2017-10-27T15:04:07.140Z,12.60
2017-10-27T15:06:34.747Z,18.57
2017-10-27T15:09:02.710Z,11.80
2017-10-27T15:11:30.302Z,10.17
2017-10-27T15:13:57.913Z,15.53
2017-10-27T15:16:25.544Z,11.80
2017-10-27T15:18:53.133Z,13.03
2017-10-27T15:21:20.756Z,10.10
2017-10-27T15:23:48.381Z,13.33
2017-10-27T15:26:15.984Z,10.57
2017-10-27T15:28:43.625Z,14.57
2017-10-27T15:31:11.237Z,14.33
2017-10-27T15:33:38.837Z,13.10
2017-10-27T15:36:06.802Z,11.07
2017-10-27T15:38:34.398Z,13.27
2017-10-27T15:41:02.019Z,13.50
2017-10-27T15:43:29.636Z,12.13
2017-10-27T15:45:57.236Z,9.23
2017-10-27T15:48:24.879Z,12.00
2017-10-27T15:50:52.460Z,10.00
2017-10-27T15:53:20.343Z,11.57
2017-10-27T15:55:48.313Z,10.03
2017-10-27T15:58:15.995Z,11.93
2017-10-27T16:00:43.668Z,9.40
2017-10-27T16:03:11.295Z,11.60
2017-10-27T16:05:38.890Z,10.90
2017-10-27T16:08:06.829Z,11.87
2017-10-27T16:10:34.448Z,10.30
2017-10-27T16:13:02.125Z,11.70
2017-10-27T16:15:29.750Z,12.00
2017-10-27T16:17:57.408Z,9.50
2017-10-27T16:20:25.046Z,15.10
2017-10-27T16:22:52.632Z,11.67
2017-10-27T16:25:20.280Z,11.00
2017-10-27T16:27:47.904Z,14.40
2017-10-27T16:30:15.540Z,9.10
2017-10-27T16:32:43.146Z,8.90
2017-10-27T16:35:10.747Z,13.23
2017-10-27T16:37:38.381Z,8.80
2017-10-27T16:40:05.966Z,8.70
2017-10-27T16:42:33.569Z,9.67
2017-10-27T16:45:01.191Z,19.07
2017-10-27T16:47:28.781Z,12.73
2017-10-27T16:49:56.417Z,12.10
2017-10-27T16:52:24.039Z,17.57
2017-10-27T16:54:51.901Z,11.10
2017-10-27T16:57:19.559Z,11.23
2017-10-27T16:59:47.172Z,12.50
2017-10-27T17:02:15.109Z,9.13
2017-10-27T17:04:42.720Z,9.10
2017-10-27T17:07:10.324Z,8.87
2017-10-27T17:09:37.953Z,9.20
2017-10-27T17:12:05.614Z,11.07
2017-10-27T17:14:33.247Z,11.27
2017-10-27T17:17:00.857Z,14.03
2017-10-27T17:19:28.449Z,10.07
2017-10-27T17:21:56.097Z,9.97
2017-10-27T17:24:23.707Z,10.63
2017-10-27T17:26:51.367Z,13.00
2017-10-27T17:29:18.957Z,9.77
2017-10-27T17:31:46.561Z,14.00
2017-10-27T17:34:14.178Z,9.63
2017-10-27T17:36:41.817Z,15.47
2017-10-27T17:39:09.614Z,18.33
2017-10-27T17:41:37.254Z,15.00
2017-10-27T17:44:04.882Z,11.77
2017-10-27T17:46:32.505Z,12.37
2017-10-27T17:49:00.098Z,9.60
2017-10-27T17:51:27.719Z,12.63
2017-10-27T17:53:55.548Z,12.00
2017-10-27T17:56:23.136Z,12.03
2017-10-27T17:58:50.753Z,14.93
2017-10-27T18:01:18.333Z,12.67
2017-10-27T18:03:45.961Z,11.90
2017-10-27T18:06:13.555Z,11.17
2017-10-27T18:08:41.173Z,10.47
2017-10-27T18:11:08.793Z,11.60
2017-10-27T18:13:36.378Z,16.47
2017-10-27T18:16:04.022Z,19.07
2017-10-27T18:18:31.645Z,16.23
2017-10-27T18:20:59.236Z,10.07
2017-10-27T18:23:26.879Z,16.80
2017-10-27T18:25:54.507Z,10.00
2017-10-27T18:28:22.404Z,13.43
2017-10-27T18:30:50.002Z,16.03
2017-10-27T18:33:17.618Z,16.97
2017-10-27T18:35:45.246Z,12.90
2017-10-27T18:38:12.860Z,17.33
2017-10-27T18:40:40.539Z,11.33
2017-10-27T18:43:08.170Z,16.07
2017-10-27T18:45:35.762Z,14.40
2017-10-27T18:48:03.384Z,14.67
2017-10-27T18:50:30.969Z,13.87
2017-10-27T18:52:58.597Z,11.03
2017-10-27T18:55:26.216Z,10.07
2017-10-27T18:57:54.156Z,15.10
2017-10-27T19:00:21.775Z,16.17
2017-10-27T19:02:49.379Z,20.10
2017-10-27T19:05:17.018Z,12.23
2017-10-27T19:07:44.620Z,16.10
2017-10-27T19:10:12.211Z,13.03
2017-10-27T19:12:39.852Z,10.40
2017-10-27T19:15:07.451Z,15.40
2017-10-27T19:17:35.086Z,11.30
2017-10-27T19:20:02.696Z,14.77
2017-10-27T19:22:30.305Z,19.43
2017-10-27T19:24:57.934Z,24.43
2017-10-27T19:27:25.533Z,18.40
2017-10-27T19:29:53.167Z,17.00
2017-10-27T19:32:20.784Z,13.23
2017-10-27T19:34:48.374Z,18.53
2017-10-27T19:37:16.350Z,18.70
2017-10-27T19:39:43.965Z,10.73
2017-10-27T19:42:11.600Z,16.20
2017-10-27T19:44:39.194Z,12.63
2017-10-27T19:47:06.795Z,14.57
2017-10-27T19:49:34.770Z,13.10
2017-10-27T19:52:02.649Z,14.30
2017-10-27T19:54:30.614Z,10.43
2017-10-27T19:56:58.218Z,13.20
2017-10-27T19:59:25.814Z,13.00
2017-10-27T20:01:53.437Z,15.60
2017-10-27T20:04:21.039Z,17.90
2017-10-27T20:06:48.681Z,12.10
2017-10-27T20:09:16.282Z,12.10
2017-10-27T20:11:43.905Z,12.73
2017-10-27T20:14:11.561Z,20.93
2017-10-27T20:16:39.174Z,25.33
2017-10-27T20:19:06.806Z,17.20
2017-10-27T20:21:34.704Z,13.43
2017-10-27T20:24:02.336Z,22.40
2017-10-27T20:26:29.976Z,13.87
2017-10-27T20:28:57.568Z,14.57
2017-10-27T20:31:25.246Z,11.60
2017-10-27T20:33:52.855Z,13.40
2017-10-27T20:36:20.458Z,16.80
2017-10-27T20:38:48.119Z,19.03
2017-10-27T20:41:16.101Z,15.23
2017-10-27T20:43:43.728Z,18.30
2017-10-27T20:46:11.319Z,17.03
2017-10-27T20:48:39.197Z,13.37
2017-10-27T20:51:06.837Z,15.60
2017-10-27T20:53:35.268Z,11.67
2017-10-27T20:56:02.890Z,14.93
2017-10-27T20:58:30.770Z,12.70
2017-10-27T21:00:58.752Z,27.17
2017-10-27T21:03:26.424Z,12.43
2017-10-27T21:05:54.009Z,12.80
2017-10-27T21:08:21.670Z,14.97
2017-10-27T21:10:49.273Z,11.47
2017-10-27T21:13:16.852Z,16.93
2017-10-27T21:15:44.457Z,15.77
2017-10-27T21:18:12.055Z,11.43
2017-10-27T21:20:39.672Z,13.47
2017-10-27T21:23:07.279Z,12.17
2017-10-27T21:25:34.861Z,32.33
2017-10-27T21:28:02.493Z,11.00
2017-10-27T21:30:30.105Z,11.77
2017-10-27T21:32:57.796Z,22.77
2017-10-27T21:35:25.399Z,13.73
2017-10-27T21:37:53.020Z,11.73
2017-10-27T21:40:20.649Z,13.50
2017-10-27T21:42:48.246Z,13.17
2017-10-27T21:45:15.862Z,9.67
2017-10-27T21:47:43.453Z,13.47
2017-10-27T21:50:11.392Z,10.47
2017-10-27T21:52:39.387Z,11.83
2017-10-27T21:55:06.985Z,11.93
2017-10-27T21:57:34.587Z,11.07
2017-10-27T22:00:02.203Z,22.83
2017-10-27T22:02:30.218Z,14.40
2017-10-27T22:04:57.828Z,15.13
2017-10-27T22:07:25.466Z,15.57
2017-10-27T22:09:53.410Z,14.83
2017-10-27T22:12:21.025Z,15.70
2017-10-27T22:14:48.661Z,13.70
2017-10-27T22:17:16.266Z,16.00
2017-10-27T22:19:43.870Z,14.43
2017-10-27T22:22:11.507Z,14.43
2017-10-27T22:24:39.108Z,12.70
2017-10-27T22:27:07.169Z,15.50
2017-10-27T22:29:34.761Z,18.47
2017-10-27T22:32:02.351Z,16.57
2017-10-27T22:34:29.982Z,14.00
2017-10-27T22:36:57.629Z,18.93
2017-10-27T22:39:25.569Z,18.90
2017-10-27T22:41:53.160Z,18.27
2017-10-27T22:44:20.741Z,15.73
2017-10-27T22:46:51.413Z,16.50
2017-10-27T22:49:19.055Z,14.30
2017-10-27T22:51:46.704Z,14.73
2017-10-27T22:54:14.621Z,15.60
2017-10-27T22:56:42.253Z,15.23
2017-10-27T22:59:09.876Z,12.73
2017-10-27T23:01:37.821Z,16.43
2017-10-27T23:04:05.448Z,28.33
2017-10-27T23:06:33.032Z,14.10
2017-10-27T23:09:00.637Z,13.37
2017-10-27T23:11:28.258Z,10.93
2017-10-27T23:13:55.838Z,12.57
2017-10-27T23:16:23.467Z,16.93
2017-10-27T23:18:51.049Z,16.90
2017-10-27T23:21:18.636Z,22.27
2017-10-27T23:23:46.247Z,29.27
2017-10-27T23:26:13.840Z,14.80
2017-10-27T23:28:41.804Z,16.53
2017-10-27T23:31:09.406Z,22.57
2017-10-27T23:33:36.985Z,17.10
2017-10-27T23:36:04.622Z,16.37
2017-10-27T23:38:32.206Z,21.00
2017-10-27T23:40:59.845Z,21.43
2017-10-27T23:43:27.441Z,20.50
2017-10-27T23:45:55.029Z,17.60
2017-10-27T23:48:22.910Z,16.70
2017-10-27T23:50:50.489Z,12.97
2017-10-27T23:53:18.135Z,19.03
2017-10-27T23:55:45.728Z,13.07
2017-10-27T23:58:13.325Z,10.83
